createdAt,value
2018-02-17T00:01:44.900Z,1.95
2018-02-17T00:04:15.625Z,1.98
2018-02-17T00:06:45.842Z,1.94
2018-02-17T00:09:15.662Z,1.85
2018-02-17T00:11:45.883Z,1.67
2018-02-17T00:14:16.174Z,1.57
2018-02-17T00:16:45.948Z,1.51
2018-02-17T00:19:16.271Z,1.57
2018-02-17T00:21:46.637Z,1.62
2018-02-17T00:24:17.139Z,1.62
2018-02-17T00:26:47.916Z,1.56
2018-02-17T00:29:18.541Z,1.44
2018-02-17T00:31:48.965Z,1.54
2018-02-17T00:34:19.311Z,1.51
2018-02-17T00:36:49.760Z,1.37
2018-02-17T00:39:21.239Z,1.15
2018-02-17T00:41:51.524Z,0.93
2018-02-17T00:44:21.423Z,0.83
2018-02-17T00:46:51.762Z,0.89
2018-02-17T00:49:22.351Z,1.03
2018-02-17T00:51:52.464Z,1.10
2018-02-17T00:54:22.928Z,1.06
2018-02-17T00:56:53.291Z,1.16
2018-02-17T00:59:23.810Z,1.08
2018-02-17T01:01:54.260Z,1.08
2018-02-17T01:04:24.905Z,1.04
2018-02-17T01:06:55.303Z,0.83
2018-02-17T01:09:25.994Z,0.85
2018-02-17T01:11:56.436Z,0.95
2018-02-17T01:14:26.965Z,0.96
2018-02-17T01:16:56.835Z,0.93
2018-02-17T01:19:27.136Z,1.02
2018-02-17T01:21:57.527Z,1.04
2018-02-17T01:24:27.748Z,1.02
2018-02-17T01:26:58.171Z,0.88
2018-02-17T01:29:28.288Z,0.65
2018-02-17T01:31:59.017Z,0.60
2018-02-17T01:34:29.596Z,0.59
2018-02-17T01:37:00.169Z,0.56
2018-02-17T01:39:30.862Z,0.57
2018-02-17T01:42:01.558Z,0.53
2018-02-17T01:44:32.170Z,0.46
2018-02-17T01:47:02.859Z,0.66
2018-02-17T01:49:33.428Z,0.71
2018-02-17T01:52:03.856Z,0.83
2018-02-17T01:54:34.287Z,0.81
2018-02-17T01:57:04.581Z,0.80
2018-02-17T01:59:34.808Z,0.82
2018-02-17T02:02:05.416Z,0.71
2018-02-17T02:04:35.445Z,0.70
2018-02-17T02:07:06.206Z,0.77
2018-02-17T02:09:36.648Z,0.81
2018-02-17T02:12:07.114Z,0.86
2018-02-17T02:14:37.466Z,0.97
2018-02-17T02:17:08.060Z,0.99
2018-02-17T02:19:38.418Z,1.02
2018-02-17T02:22:08.750Z,1.08
2018-02-17T02:24:38.748Z,1.06
2018-02-17T02:27:09.199Z,1.12
2018-02-17T02:29:39.632Z,1.07
2018-02-17T02:32:10.076Z,1.10
2018-02-17T02:34:40.547Z,1.09
2018-02-17T02:37:11.027Z,1.09
2018-02-17T02:39:41.435Z,1.04
2018-02-17T02:42:14.934Z,1.01
2018-02-17T02:44:45.456Z,0.98
2018-02-17T02:47:16.194Z,0.92
2018-02-17T02:49:46.821Z,0.86
2018-02-17T02:52:17.313Z,0.80
2018-02-17T02:54:47.701Z,0.77
2018-02-17T02:57:18.104Z,0.92
2018-02-17T02:59:48.386Z,0.92
2018-02-17T03:02:18.616Z,0.89
2018-02-17T03:04:49.031Z,0.86
2018-02-17T03:07:19.427Z,0.82
2018-02-17T03:09:49.867Z,0.71
2018-02-17T03:12:20.255Z,0.71
2018-02-17T03:14:50.414Z,0.67
2018-02-17T03:17:20.232Z,0.60
2018-02-17T03:19:50.481Z,0.63
2018-02-17T03:22:20.808Z,0.67
2018-02-17T03:24:51.433Z,0.62
2018-02-17T03:27:21.890Z,0.52
2018-02-17T03:29:51.764Z,0.42
2018-02-17T03:32:22.469Z,0.49
2018-02-17T03:34:52.828Z,0.35
2018-02-17T03:37:23.081Z,0.36
2018-02-17T03:39:53.839Z,0.36
2018-02-17T03:42:24.566Z,0.38
2018-02-17T03:44:54.625Z,0.43
2018-02-17T03:47:25.188Z,0.39
2018-02-17T03:49:55.979Z,0.34
2018-02-17T03:52:26.620Z,0.24
2018-02-17T03:54:57.009Z,0.09
2018-02-17T03:57:26.782Z,-0.04
2018-02-17T03:59:57.582Z,-0.13
2018-02-17T04:02:28.195Z,-0.20
2018-02-17T04:04:58.748Z,-0.20
2018-02-17T04:07:28.974Z,-0.24
2018-02-17T04:09:59.110Z,-0.44
2018-02-17T04:12:29.921Z,-0.32
2018-02-17T04:15:00.107Z,-0.19
2018-02-17T04:17:30.556Z,-0.09
2018-02-17T04:20:00.903Z,-0.01
2018-02-17T04:22:31.421Z,-0.10
2018-02-17T04:25:01.874Z,-0.29
2018-02-17T04:27:32.372Z,-0.34
2018-02-17T04:30:02.288Z,-0.39
2018-02-17T04:32:32.700Z,-0.33
2018-02-17T04:35:03.116Z,-0.36
2018-02-17T04:37:33.487Z,-0.35
2018-02-17T04:40:05.065Z,-0.35
2018-02-17T04:42:37.702Z,-0.43
2018-02-17T04:45:13.854Z,-0.34
2018-02-17T04:47:49.982Z,-0.51
2018-02-17T04:50:25.988Z,-0.66
2018-02-17T04:53:02.451Z,-0.55
2018-02-17T04:55:49.097Z,-0.53
2018-02-17T04:58:35.286Z,-0.52
2018-02-17T05:01:25.493Z,-0.55
2018-02-17T05:04:07.729Z,-0.66
2018-02-17T05:06:44.169Z,-0.67
2018-02-17T05:09:14.645Z,-0.60
2018-02-17T05:11:44.519Z,-0.56
2018-02-17T05:14:30.418Z,-0.50
2018-02-17T05:17:03.903Z,-0.57
2018-02-17T05:19:47.461Z,-0.44
2018-02-17T05:22:18.975Z,-0.54
2018-02-17T05:24:50.443Z,-0.57
2018-02-17T05:27:25.830Z,-0.47
2018-02-17T05:29:57.060Z,-0.45
2018-02-17T05:32:36.793Z,-0.50
2018-02-17T05:35:10.394Z,-0.47
2018-02-17T05:37:40.157Z,-0.48
2018-02-17T05:40:10.818Z,-0.35
2018-02-17T05:42:42.472Z,-0.38
2018-02-17T05:45:12.849Z,-0.39
2018-02-17T05:47:44.598Z,-0.29
2018-02-17T05:50:16.123Z,-0.19
2018-02-17T05:52:45.868Z,-0.06
2018-02-17T05:55:15.676Z,-0.11
2018-02-17T05:57:45.550Z,-0.05
2018-02-17T06:00:15.275Z,-0.03
2018-02-17T06:02:45.052Z,-0.01
2018-02-17T06:05:14.879Z,0.04
2018-02-17T06:07:44.703Z,0.23
2018-02-17T06:10:14.503Z,0.54
2018-02-17T06:12:44.286Z,0.50
2018-02-17T06:15:14.079Z,0.54
2018-02-17T06:17:43.880Z,0.66
2018-02-17T06:20:13.676Z,0.60
2018-02-17T06:22:43.414Z,0.66
2018-02-17T06:25:13.165Z,0.74
2018-02-17T06:27:42.986Z,0.69
2018-02-17T06:30:12.737Z,0.83
2018-02-17T06:32:42.562Z,0.90
2018-02-17T06:35:12.416Z,1.12
2018-02-17T06:37:42.169Z,1.33
2018-02-17T06:40:11.927Z,1.58
2018-02-17T06:42:41.627Z,1.80
2018-02-17T06:45:11.380Z,1.93
2018-02-17T06:47:41.127Z,2.01
2018-02-17T06:50:10.901Z,2.14
2018-02-17T06:52:40.645Z,2.18
2018-02-17T06:55:10.600Z,2.26
2018-02-17T06:57:40.920Z,2.41
2018-02-17T07:00:11.057Z,2.71
2018-02-17T07:02:41.260Z,2.91
2018-02-17T07:05:11.469Z,3.13
2018-02-17T07:07:41.541Z,3.34
2018-02-17T07:10:11.445Z,3.56
2018-02-17T07:12:41.213Z,3.47
2018-02-17T07:15:11.090Z,3.50
2018-02-17T07:17:41.222Z,4.08
2018-02-17T07:20:11.558Z,4.18
2018-02-17T07:22:42.091Z,4.50
2018-02-17T07:25:12.428Z,4.52
2018-02-17T07:27:42.802Z,4.94
2018-02-17T07:30:13.297Z,4.85
2018-02-17T07:32:43.822Z,4.94
2018-02-17T07:35:14.235Z,5.24
2018-02-17T07:37:44.375Z,5.68
2018-02-17T07:40:14.561Z,5.95
2018-02-17T07:42:45.062Z,6.22
2018-02-17T07:45:15.351Z,6.24
2018-02-17T07:47:46.109Z,6.53
2018-02-17T07:50:16.471Z,7.03
2018-02-17T07:52:46.930Z,6.71
2018-02-17T07:55:17.439Z,6.79
2018-02-17T07:57:47.565Z,6.49
2018-02-17T08:00:18.131Z,6.15
2018-02-17T08:02:48.460Z,6.02
2018-02-17T08:05:18.949Z,5.98
2018-02-17T08:07:49.271Z,6.19
2018-02-17T08:10:19.160Z,6.16
2018-02-17T08:12:49.429Z,5.96
2018-02-17T08:15:19.556Z,5.73
2018-02-17T08:17:49.458Z,5.57
2018-02-17T08:20:20.223Z,5.41
2018-02-17T08:22:51.357Z,5.43
2018-02-17T08:25:21.590Z,5.42
2018-02-17T08:27:52.011Z,5.67
2018-02-17T08:30:22.523Z,5.40
2018-02-17T08:32:53.462Z,5.49
2018-02-17T08:35:24.088Z,5.71
2018-02-17T08:37:54.621Z,5.36
2018-02-17T08:40:24.957Z,5.33
2018-02-17T08:42:55.316Z,5.21
2018-02-17T08:45:25.366Z,5.18
2018-02-17T08:47:56.152Z,5.47
2018-02-17T08:50:26.559Z,5.37
2018-02-17T08:52:57.021Z,5.55
2018-02-17T08:55:26.832Z,5.52
2018-02-17T08:57:57.385Z,5.29
2018-02-17T09:00:27.953Z,5.31
2018-02-17T09:02:58.345Z,5.21
2018-02-17T09:05:28.641Z,5.13
2018-02-17T09:07:59.528Z,5.33
2018-02-17T09:10:41.767Z,5.18
2018-02-17T09:13:12.032Z,4.91
2018-02-17T09:15:42.507Z,5.12
2018-02-17T09:18:12.882Z,5.22
2018-02-17T09:20:43.398Z,5.16
2018-02-17T09:23:13.773Z,5.29
2018-02-17T09:25:43.971Z,5.74
2018-02-17T09:28:14.639Z,5.99
2018-02-17T09:30:45.036Z,6.18
2018-02-17T09:33:15.374Z,6.15
2018-02-17T09:35:45.814Z,6.35
2018-02-17T09:38:16.220Z,6.27
2018-02-17T09:40:46.636Z,6.47
2018-02-17T09:43:17.084Z,6.66
2018-02-17T09:45:47.847Z,7.03
2018-02-17T09:48:18.362Z,7.00
2018-02-17T09:50:48.650Z,7.01
2018-02-17T09:53:19.121Z,6.98
2018-02-17T09:55:49.655Z,6.92
2018-02-17T09:58:20.270Z,7.16
2018-02-17T10:00:50.866Z,6.98
2018-02-17T10:03:21.223Z,7.20
2018-02-17T10:05:51.020Z,7.28
2018-02-17T10:14:05.073Z,7.54
2018-02-17T10:16:35.257Z,7.49
2018-02-17T10:19:05.111Z,7.89
2018-02-17T10:21:35.118Z,8.58
2018-02-17T10:24:04.980Z,8.83
2018-02-17T10:26:35.038Z,8.83
2018-02-17T10:29:04.991Z,9.83
2018-02-17T10:31:35.006Z,9.88
2018-02-17T10:34:04.835Z,9.76
2018-02-17T10:36:35.255Z,9.96
2018-02-17T10:39:05.613Z,10.43
2018-02-17T10:41:35.925Z,10.88
2018-02-17T10:44:06.256Z,10.48
2018-02-17T10:46:36.585Z,10.42
2018-02-17T10:49:06.751Z,10.65
2018-02-17T10:51:36.637Z,11.13
2018-02-17T10:54:07.352Z,11.41
2018-02-17T10:56:37.740Z,11.29
2018-02-17T10:59:08.309Z,11.48
2018-02-17T11:01:38.926Z,11.65
2018-02-17T11:04:09.301Z,11.94
2018-02-17T11:06:39.523Z,11.76
2018-02-17T11:09:09.931Z,12.03
2018-02-17T11:11:40.141Z,11.98
2018-02-17T11:14:09.960Z,11.79
2018-02-17T11:16:40.020Z,12.29
2018-02-17T11:19:10.554Z,12.30
2018-02-17T11:21:41.356Z,12.56
2018-02-17T11:24:11.779Z,12.54
2018-02-17T11:26:42.198Z,12.09
2018-02-17T11:29:12.469Z,12.18
2018-02-17T11:31:42.775Z,11.95
2018-02-17T11:34:13.274Z,12.19
2018-02-17T11:36:43.692Z,13.08
2018-02-17T11:39:14.029Z,13.48
2018-02-17T11:41:44.780Z,13.41
2018-02-17T11:44:15.141Z,13.82
2018-02-17T11:46:45.574Z,13.59
2018-02-17T11:49:15.875Z,14.01
2018-02-17T11:51:45.621Z,13.55
2018-02-17T11:54:15.792Z,13.71
2018-02-17T11:56:45.455Z,13.52
2018-02-17T11:59:15.336Z,13.33
2018-02-17T12:01:45.039Z,13.78
2018-02-17T12:04:15.224Z,13.72
2018-02-17T12:06:45.345Z,13.88
2018-02-17T12:09:15.098Z,14.26
2018-02-17T12:11:44.813Z,14.10
2018-02-17T12:14:14.496Z,14.29
2018-02-17T12:16:45.037Z,14.15
2018-02-17T12:19:14.707Z,13.93
2018-02-17T12:21:44.533Z,14.40
2018-02-17T12:24:14.720Z,14.53
2018-02-17T12:26:45.098Z,14.40
2018-02-17T12:29:14.803Z,13.99
2018-02-17T12:31:44.567Z,14.36
2018-02-17T12:34:14.348Z,14.75
2018-02-17T12:36:44.286Z,14.85
2018-02-17T12:39:14.217Z,15.28
2018-02-17T12:41:44.150Z,14.98
2018-02-17T12:44:13.874Z,14.78
2018-02-17T12:46:43.559Z,14.84
2018-02-17T12:49:13.247Z,14.82
2018-02-17T12:51:42.929Z,14.82
2018-02-17T12:54:13.507Z,14.84
2018-02-17T12:56:43.219Z,14.63
2018-02-17T12:59:13.245Z,15.12
2018-02-17T13:01:42.999Z,15.32
2018-02-17T13:04:12.715Z,15.54
2018-02-17T13:06:42.412Z,16.09
2018-02-17T13:09:12.137Z,15.70
2018-02-17T13:11:42.609Z,15.47
2018-02-17T13:14:12.805Z,14.97
2018-02-17T13:16:43.183Z,15.10
2018-02-17T13:19:13.569Z,15.07
2018-02-17T13:21:44.008Z,14.90
2018-02-17T13:24:14.414Z,15.37
2018-02-17T13:26:45.026Z,15.64
2018-02-17T13:29:14.752Z,15.62
2018-02-17T13:31:44.469Z,15.63
2018-02-17T13:34:14.770Z,15.50
2018-02-17T13:43:33.051Z,15.40
2018-02-17T13:46:03.091Z,15.66
2018-02-17T13:48:32.765Z,15.48
2018-02-17T13:51:02.454Z,15.58
2018-02-17T13:53:32.704Z,15.55
2018-02-17T13:56:03.018Z,15.49
2018-02-17T13:58:32.812Z,15.42
2018-02-17T14:01:03.255Z,15.27
2018-02-17T14:03:33.403Z,15.60
2018-02-17T14:06:03.086Z,15.70
2018-02-17T14:08:33.210Z,15.93
2018-02-17T14:11:02.960Z,16.32
2018-02-17T14:13:32.709Z,16.19
2018-02-17T14:16:02.457Z,15.74
2018-02-17T14:18:32.155Z,15.85
2018-02-17T14:21:01.852Z,16.04
2018-02-17T14:23:31.564Z,16.21
2018-02-17T14:26:01.306Z,16.09
2018-02-17T14:28:30.992Z,16.11
2018-02-17T14:31:00.724Z,16.11
2018-02-17T14:33:30.497Z,16.22
2018-02-17T14:36:00.167Z,16.12
2018-02-17T14:38:29.906Z,16.04
2018-02-17T14:40:59.650Z,15.93
2018-02-17T14:43:29.380Z,15.93
2018-02-17T14:45:59.089Z,15.71
2018-02-17T14:48:28.830Z,15.90
2018-02-17T14:50:59.335Z,15.92
2018-02-17T14:53:29.412Z,15.59
2018-02-17T14:55:59.147Z,15.53
2018-02-17T14:58:29.074Z,15.25
2018-02-17T15:00:58.822Z,15.09
2018-02-17T15:03:28.554Z,15.00
2018-02-17T15:05:58.219Z,14.72
2018-02-17T15:08:28.045Z,14.76
2018-02-17T15:10:57.883Z,14.73
2018-02-17T15:13:27.553Z,14.66
2018-02-17T15:15:57.327Z,14.81
2018-02-17T15:18:27.012Z,14.78
2018-02-17T15:20:56.724Z,14.77
2018-02-17T15:23:26.424Z,14.50
2018-02-17T15:25:56.110Z,14.26
2018-02-17T15:28:26.286Z,14.19
2018-02-17T15:30:56.253Z,13.83
2018-02-17T15:33:25.964Z,13.76
2018-02-17T15:35:55.699Z,13.58
2018-02-17T15:38:26.237Z,13.38
2018-02-17T15:40:55.954Z,13.16
2018-02-17T15:43:25.673Z,13.07
2018-02-17T15:45:55.404Z,12.65
2018-02-17T15:48:25.087Z,12.44
2018-02-17T15:50:54.797Z,12.35
2018-02-17T15:53:24.525Z,12.01
2018-02-17T15:55:54.209Z,11.68
2018-02-17T15:58:23.974Z,11.33
2018-02-17T16:00:53.657Z,11.19
2018-02-17T16:03:23.389Z,11.04
2018-02-17T16:05:53.065Z,10.82
2018-02-17T16:08:22.738Z,10.76
2018-02-17T16:10:52.478Z,10.55
2018-02-17T16:13:22.165Z,10.31
2018-02-17T16:15:51.910Z,10.19
2018-02-17T16:18:21.640Z,9.95
2018-02-17T16:20:51.393Z,9.83
2018-02-17T16:23:21.077Z,9.69
2018-02-17T16:25:50.747Z,9.64
2018-02-17T16:28:20.498Z,9.48
2018-02-17T16:30:50.214Z,9.41
2018-02-17T16:33:19.943Z,9.25
2018-02-17T16:35:49.628Z,9.06
2018-02-17T16:38:19.306Z,8.88
2018-02-17T16:40:49.022Z,8.75
2018-02-17T16:43:18.696Z,8.65
2018-02-17T16:45:48.374Z,8.59
2018-02-17T16:48:18.131Z,8.53
2018-02-17T16:50:47.843Z,8.46
2018-02-17T16:53:17.549Z,8.27
2018-02-17T16:55:47.263Z,8.13
2018-02-17T16:58:16.931Z,8.08
2018-02-17T17:00:46.645Z,7.77
2018-02-17T17:03:16.338Z,7.47
2018-02-17T17:05:46.009Z,7.25
2018-02-17T17:08:15.806Z,7.08
2018-02-17T17:10:45.515Z,6.97
2018-02-17T17:13:15.220Z,6.75
2018-02-17T17:15:44.943Z,6.69
2018-02-17T17:18:14.654Z,6.49
2018-02-17T17:20:44.371Z,6.40
2018-02-17T17:23:14.085Z,6.19
2018-02-17T17:25:43.793Z,6.10
2018-02-17T17:28:13.485Z,6.04
2018-02-17T17:30:43.224Z,5.85
2018-02-17T17:33:12.950Z,5.72
2018-02-17T17:35:42.679Z,5.80
2018-02-17T17:38:12.390Z,5.78
2018-02-17T17:40:42.125Z,5.94
2018-02-17T17:43:11.808Z,6.00
2018-02-17T17:45:41.503Z,6.07
2018-02-17T17:48:11.205Z,6.12
2018-02-17T17:50:40.917Z,5.95
2018-02-17T17:53:10.643Z,5.58
2018-02-17T17:55:40.346Z,5.73
2018-02-17T17:58:10.040Z,5.87
2018-02-17T18:00:39.787Z,5.84
2018-02-17T18:03:09.470Z,5.80
2018-02-17T18:05:39.171Z,5.84
2018-02-17T18:08:09.003Z,5.88
2018-02-17T18:10:38.694Z,5.70
2018-02-17T18:13:08.423Z,5.70
2018-02-17T18:15:38.090Z,5.71
2018-02-17T18:18:07.829Z,5.67
2018-02-17T18:20:37.515Z,5.63
2018-02-17T18:23:07.274Z,5.24
2018-02-17T18:25:37.075Z,5.22
2018-02-17T18:28:06.773Z,5.35
2018-02-17T18:30:36.531Z,5.36
2018-02-17T18:33:06.274Z,5.51
2018-02-17T18:35:35.978Z,5.51
2018-02-17T18:38:05.715Z,5.41
2018-02-17T18:40:35.462Z,5.28
2018-02-17T18:43:05.167Z,5.21
2018-02-17T18:45:34.864Z,5.22
2018-02-17T18:48:04.584Z,5.17
2018-02-17T18:50:34.324Z,5.17
2018-02-17T18:53:04.092Z,5.16
2018-02-17T18:55:33.835Z,5.09
2018-02-17T18:58:03.543Z,5.03
2018-02-17T19:00:33.244Z,4.96
2018-02-17T19:03:02.987Z,5.00
2018-02-17T19:05:32.661Z,5.09
2018-02-17T19:08:02.436Z,5.14
2018-02-17T19:10:32.187Z,5.24
2018-02-17T19:13:01.880Z,5.37
2018-02-17T19:15:31.561Z,5.44
2018-02-17T19:18:01.274Z,5.52
2018-02-17T19:20:31.004Z,5.63
2018-02-17T19:23:00.745Z,5.61
2018-02-17T19:25:30.486Z,5.68
2018-02-17T19:28:00.258Z,5.68
2018-02-17T19:30:29.926Z,5.72
2018-02-17T19:32:59.645Z,5.70
2018-02-17T19:35:29.343Z,5.73
2018-02-17T19:37:59.048Z,5.74
2018-02-17T19:40:28.771Z,5.76
2018-02-17T19:42:58.465Z,5.70
2018-02-17T19:45:28.214Z,5.64
2018-02-17T19:47:58.023Z,5.33
2018-02-17T19:50:27.721Z,5.25
2018-02-17T19:52:57.416Z,5.19
2018-02-17T19:55:27.181Z,4.96
2018-02-17T19:57:56.930Z,4.61
2018-02-17T20:00:26.606Z,4.41
2018-02-17T20:02:56.349Z,4.31
2018-02-17T20:05:26.012Z,4.16
2018-02-17T20:07:55.728Z,4.18
2018-02-17T20:10:25.450Z,4.22
2018-02-17T20:12:55.136Z,4.23
2018-02-17T20:15:24.815Z,4.16
2018-02-17T20:17:54.524Z,4.17
2018-02-17T20:20:24.219Z,4.16
2018-02-17T20:22:53.952Z,4.02
2018-02-17T20:25:23.637Z,4.02
2018-02-17T20:27:53.406Z,3.97
2018-02-17T20:30:23.109Z,3.94
2018-02-17T20:32:53.399Z,3.86
2018-02-17T20:35:23.144Z,3.82
2018-02-17T20:37:53.477Z,3.75
2018-02-17T20:40:23.290Z,3.70
2018-02-17T20:42:53.428Z,3.60
2018-02-17T20:45:23.252Z,3.50
2018-02-17T20:47:53.087Z,3.56
2018-02-17T20:50:22.878Z,3.51
2018-02-17T20:52:52.803Z,3.44
2018-02-17T20:55:23.521Z,3.43
2018-02-17T20:57:53.288Z,3.44
2018-02-17T21:00:23.323Z,3.40
2018-02-17T21:02:53.509Z,3.27
2018-02-17T21:05:23.329Z,3.18
2018-02-17T21:07:53.164Z,3.21
2018-02-17T21:10:22.956Z,3.11
2018-02-17T21:12:53.354Z,2.99
2018-02-17T21:15:23.088Z,2.94
2018-02-17T21:17:52.819Z,2.96
2018-02-17T21:20:22.534Z,3.01
2018-02-17T21:22:52.638Z,3.06
2018-02-17T21:25:22.499Z,3.03
2018-02-17T21:27:52.230Z,3.08
2018-02-17T21:30:22.376Z,3.11
2018-02-17T21:32:52.690Z,3.13
2018-02-17T21:35:23.137Z,3.13
2018-02-17T21:37:53.390Z,3.00
2018-02-17T21:40:23.447Z,2.91
2018-02-17T21:42:53.140Z,2.87
2018-02-17T21:45:22.851Z,2.82
2018-02-17T21:47:53.114Z,2.68
2018-02-17T21:50:22.955Z,2.71
2018-02-17T21:52:52.841Z,2.50
2018-02-17T21:55:23.138Z,2.30
2018-02-17T21:57:52.868Z,2.46
2018-02-17T22:00:23.309Z,2.58
2018-02-17T22:02:53.568Z,2.59
2018-02-17T22:05:23.257Z,2.61
2018-02-17T22:07:53.118Z,2.68
2018-02-17T22:10:22.903Z,2.70
2018-02-17T22:12:52.774Z,2.70
2018-02-17T22:15:22.929Z,2.67
2018-02-17T22:17:52.684Z,2.76
2018-02-17T22:20:22.490Z,2.77
2018-02-17T22:22:52.216Z,2.80
2018-02-17T22:25:22.275Z,2.85
2018-02-17T22:27:51.984Z,2.80
2018-02-17T22:30:21.712Z,2.69
2018-02-17T22:32:52.191Z,2.67
2018-02-17T22:35:22.929Z,2.62
2018-02-17T22:37:53.579Z,2.62
2018-02-17T22:40:23.701Z,2.63
2018-02-17T22:42:54.090Z,2.58
2018-02-17T22:45:23.865Z,2.55
2018-02-17T22:47:54.303Z,2.57
2018-02-17T22:50:24.571Z,2.57
2018-02-17T22:52:54.922Z,2.48
2018-02-17T22:55:25.339Z,2.54
2018-02-17T22:57:55.105Z,2.42
2018-02-17T23:00:30.693Z,2.43
2018-02-17T23:03:00.622Z,2.42
2018-02-17T23:05:30.364Z,2.41
2018-02-17T23:08:01.350Z,2.38
2018-02-17T23:10:31.051Z,2.32
2018-02-17T23:13:00.817Z,2.30
2018-02-17T23:15:30.516Z,2.27
2018-02-17T23:18:00.292Z,2.19
2018-02-17T23:20:31.022Z,2.18
2018-02-17T23:23:02.226Z,2.13
2018-02-17T23:25:32.908Z,2.11
2018-02-17T23:28:03.489Z,2.18
2018-02-17T23:30:33.235Z,2.23
2018-02-17T23:33:03.378Z,2.26
2018-02-17T23:35:33.170Z,2.25
2018-02-17T23:38:03.249Z,2.24
2018-02-17T23:40:33.572Z,2.25
2018-02-17T23:43:03.351Z,2.16
2018-02-17T23:45:33.427Z,2.09
2018-02-17T23:48:03.582Z,2.05
2018-02-17T23:50:33.754Z,1.86
2018-02-17T23:53:03.734Z,1.71
2018-02-17T23:55:34.148Z,1.63
2018-02-17T23:58:03.850Z,1.65
